CheckWX is a tool to help pilots better visualize weather data.  It is not intended as a substitute for an official pre-flight weather briefing.

14:01:52 UTC

GOOD METAR
Diourbel Airport
Diourbel, Senegal
Current

2 hours ago

GOOD 201200Z 00000KT CAVOK 33/23 Q1014
Observed
Jul-20 @ 12:00 UTC
Visibility
10,000+ meters
Flight Rules
VFR
Cloud Levels
  • Clear skies
Temperature
33°C / 91°F
Dewpoint
23°C / 73°F
Heat Index
38°C / 100°F
Humidity
56%
Altimeter
29.94" Hg
Pressure
1013.92 hPa
Previous

3 hours ago

GOOD 201100Z 32002KT CAVOK 30/23 Q1014
Observed
Jul-20 @ 11:00 UTC
Wind
  • 320° at 2 KTS
Visibility
10,000+ meters
Flight Rules
VFR
Cloud Levels
  • Clear skies
Temperature
30°C / 86°F
Dewpoint
23°C / 73°F
Heat Index
34°C / 93°F
Humidity
66%
Altimeter
29.94" Hg
Pressure
1013.92 hPa
Previous

5 hours ago

GOOD 200900Z 32002KT CAVOK 26/22 Q1013
Observed
Jul-20 @ 09:00 UTC
Wind
  • 320° at 2 KTS
Visibility
10,000+ meters
Flight Rules
VFR
Cloud Levels
  • Clear skies
Temperature
26°C / 79°F
Dewpoint
22°C / 72°F
Humidity
79%
Altimeter
29.91" Hg
Pressure
1012.92 hPa